createdAt,value
2018-07-30T00:01:58.074Z,98.40
2018-07-30T00:04:26.572Z,98.00
2018-07-30T00:06:55.086Z,98.10
2018-07-30T00:09:24.536Z,98.10
2018-07-30T00:11:53.058Z,98.40
2018-07-30T00:14:22.789Z,98.20
2018-07-30T00:16:51.249Z,98.10
2018-07-30T00:19:19.742Z,98.30
2018-07-30T00:21:48.280Z,98.70
2018-07-30T00:26:45.576Z,98.60
2018-07-30T00:31:50.079Z,98.50
2018-07-30T00:34:19.833Z,98.50
2018-07-30T00:36:48.310Z,98.80
2018-07-30T00:39:17.494Z,99.00
2018-07-30T00:41:45.993Z,98.90
2018-07-30T00:52:24.691Z,99.10
2018-07-30T00:54:53.213Z,99.50
2018-07-30T00:57:21.685Z,99.90
2018-07-30T00:59:50.210Z,99.90
2018-07-30T01:02:18.709Z,99.90
2018-07-30T01:04:47.265Z,99.90
2018-07-30T01:09:45.807Z,99.90
2018-07-30T01:31:48.941Z,99.90
2018-07-30T01:34:17.421Z,99.90
2018-07-30T01:36:46.863Z,99.90
2018-07-30T01:41:44.618Z,99.90
2018-07-30T01:44:13.077Z,99.90
2018-07-30T01:46:41.573Z,99.90
2018-07-30T01:49:10.065Z,99.90
2018-07-30T01:51:38.589Z,99.90
2018-07-30T01:54:07.474Z,99.90
2018-07-30T01:56:35.969Z,99.90
2018-07-30T01:59:04.548Z,99.90
2018-07-30T02:01:33.060Z,99.90
2018-07-30T02:04:01.549Z,99.90
2018-07-30T02:06:30.045Z,99.90
2018-07-30T02:08:58.561Z,99.90
2018-07-30T02:11:27.061Z,99.90
2018-07-30T02:13:55.565Z,99.90
2018-07-30T02:16:24.106Z,99.90
2018-07-30T02:18:52.601Z,99.90
2018-07-30T02:21:21.126Z,99.90
2018-07-30T02:23:49.629Z,99.90
2018-07-30T02:26:18.121Z,99.90
2018-07-30T02:28:46.595Z,99.90
2018-07-30T02:31:50.238Z,99.90
2018-07-30T02:34:18.754Z,99.90
2018-07-30T02:36:48.275Z,99.90
2018-07-30T02:39:18.840Z,99.90
2018-07-30T02:41:47.349Z,99.90
2018-07-30T02:44:16.481Z,99.90
2018-07-30T02:46:45.009Z,99.90
2018-07-30T02:49:13.524Z,99.90
2018-07-30T02:51:42.090Z,99.90
2018-07-30T02:54:11.164Z,99.90
2018-07-30T02:56:39.690Z,99.90
2018-07-30T02:59:08.260Z,99.90
2018-07-30T03:01:36.781Z,99.90
2018-07-30T03:04:05.337Z,99.90
2018-07-30T03:06:33.850Z,99.90
2018-07-30T03:09:02.392Z,99.90
2018-07-30T03:11:30.966Z,99.90
2018-07-30T03:13:59.461Z,99.90
2018-07-30T03:18:56.917Z,99.90
2018-07-30T03:21:25.405Z,99.90
2018-07-30T03:23:53.969Z,99.90
2018-07-30T03:26:22.513Z,99.90
2018-07-30T03:28:51.936Z,99.90
2018-07-30T03:31:20.432Z,99.90
2018-07-30T03:33:49.010Z,99.90
2018-07-30T03:36:17.557Z,99.90
2018-07-30T03:38:47.120Z,99.90
2018-07-30T03:47:39.972Z,99.90
2018-07-30T03:50:08.501Z,99.90
2018-07-30T03:55:06.034Z,99.90
2018-07-30T03:57:34.504Z,99.90
2018-07-30T04:00:03.095Z,99.90
2018-07-30T04:02:31.556Z,99.90
2018-07-30T04:05:00.240Z,99.90
2018-07-30T04:07:28.745Z,99.90
2018-07-30T04:09:58.181Z,99.90
2018-07-30T04:12:26.686Z,99.90
2018-07-30T04:17:23.856Z,99.90
2018-07-30T04:19:52.341Z,99.90
2018-07-30T04:22:21.025Z,99.90
2018-07-30T04:24:49.549Z,99.90
2018-07-30T04:27:18.198Z,99.90
2018-07-30T04:29:46.701Z,99.90
2018-07-30T04:43:04.431Z,99.90
2018-07-30T04:45:32.953Z,99.90
2018-07-30T04:48:01.520Z,99.90
2018-07-30T04:50:30.134Z,99.90
2018-07-30T04:52:58.683Z,99.90
2018-07-30T04:55:27.217Z,99.90
2018-07-30T04:57:55.802Z,99.90
2018-07-30T05:00:24.309Z,99.90
2018-07-30T05:02:52.796Z,99.90
2018-07-30T05:05:21.357Z,99.90
2018-07-30T05:07:50.082Z,99.90
2018-07-30T05:10:18.598Z,99.90
2018-07-30T05:12:47.435Z,99.90
2018-07-30T05:15:17.490Z,99.90
2018-07-30T05:17:46.173Z,99.90
2018-07-30T05:28:38.170Z,99.90
2018-07-30T05:31:06.701Z,99.90
2018-07-30T05:33:35.190Z,99.90
2018-07-30T05:36:03.782Z,99.90
2018-07-30T05:38:32.277Z,99.90
2018-07-30T05:41:00.769Z,99.90
2018-07-30T05:43:30.252Z,99.90
2018-07-30T05:45:58.823Z,99.90
2018-07-30T05:48:27.369Z,99.90
2018-07-30T05:50:56.956Z,99.90
2018-07-30T05:53:25.434Z,99.90
2018-07-30T05:55:53.933Z,99.90
2018-07-30T05:58:22.486Z,99.90
2018-07-30T06:00:50.965Z,99.90
2018-07-30T06:03:19.597Z,99.90
2018-07-30T06:05:48.145Z,99.90
2018-07-30T06:08:17.616Z,99.90
2018-07-30T06:10:46.154Z,97.90
2018-07-30T06:23:55.191Z,95.40
2018-07-30T06:26:23.727Z,92.90
2018-07-30T06:28:52.252Z,61.10
2018-07-30T06:31:20.898Z,58.80
2018-07-30T06:33:49.515Z,56.10
2018-07-30T06:36:18.001Z,55.40
2018-07-30T06:38:46.541Z,52.60
2018-07-30T06:58:55.250Z,50.10
2018-07-30T07:01:23.800Z,50.40
2018-07-30T07:03:53.182Z,44.60
2018-07-30T07:06:21.784Z,42.00
2018-07-30T07:08:50.295Z,41.40
2018-07-30T07:11:18.838Z,39.50
2018-07-30T07:13:47.475Z,37.00
2018-07-30T07:24:30.825Z,35.50
2018-07-30T07:26:59.460Z,34.30
2018-07-30T07:29:28.029Z,32.50
2018-07-30T07:31:56.619Z,31.20
2018-07-30T07:34:26.207Z,30.50
2018-07-30T07:36:54.922Z,29.60
2018-07-30T07:39:23.558Z,28.70
2018-07-30T07:41:52.342Z,28.20
2018-07-30T07:44:21.025Z,27.60
2018-07-30T07:46:49.897Z,27.50
2018-07-30T07:49:19.062Z,27.50
2018-07-30T07:51:49.215Z,27.40
2018-07-30T07:54:17.765Z,26.60
2018-07-30T07:56:46.389Z,25.30
2018-07-30T08:19:44.722Z,26.20
2018-07-30T08:22:13.297Z,26.40
2018-07-30T08:24:41.830Z,23.00
2018-07-30T08:27:10.411Z,22.50
2018-07-30T08:29:38.959Z,22.60
2018-07-30T08:32:08.211Z,23.10
2018-07-30T08:34:36.766Z,22.10
2018-07-30T08:37:05.278Z,22.70
2018-07-30T08:39:34.081Z,22.10
2018-07-30T08:44:31.125Z,21.10
2018-07-30T08:46:59.682Z,21.30
2018-07-30T08:49:28.554Z,21.30
2018-07-30T08:51:57.123Z,21.30
2018-07-30T08:54:25.695Z,20.80
2018-07-30T08:59:23.601Z,21.20
2018-07-30T09:01:52.126Z,21.10
2018-07-30T09:04:21.099Z,20.20
2018-07-30T09:06:49.612Z,20.80
2018-07-30T09:09:18.097Z,20.40
2018-07-30T09:20:22.036Z,20.40
2018-07-30T09:22:50.593Z,20.40
2018-07-30T09:25:19.374Z,20.20
2018-07-30T09:27:47.942Z,19.90
2018-07-30T09:31:49.856Z,20.00
2018-07-30T09:34:18.414Z,20.50
2018-07-30T09:36:46.914Z,21.00
2018-07-30T09:47:33.211Z,20.90
2018-07-30T09:52:30.631Z,19.90
2018-07-30T09:55:00.101Z,19.90
2018-07-30T09:57:28.621Z,19.60
2018-07-30T09:59:57.136Z,19.50
2018-07-30T10:04:53.894Z,19.80
2018-07-30T10:07:22.651Z,19.90
2018-07-30T10:09:51.170Z,21.00
2018-07-30T10:12:20.231Z,20.80
2018-07-30T10:14:48.709Z,21.40
2018-07-30T10:17:17.600Z,22.10
2018-07-30T10:19:46.090Z,22.70
2018-07-30T10:41:34.364Z,23.70
2018-07-30T10:46:32.106Z,29.40
2018-07-30T10:49:00.662Z,30.30
2018-07-30T10:51:29.395Z,30.60
2018-07-30T10:53:57.942Z,30.20
2018-07-30T10:56:26.539Z,29.70
2018-07-30T10:58:55.105Z,29.40
2018-07-30T11:01:23.703Z,29.50
2018-07-30T11:03:52.712Z,29.20
2018-07-30T11:06:21.302Z,29.20
2018-07-30T11:08:49.790Z,30.60
2018-07-30T11:11:18.338Z,30.00
2018-07-30T11:13:46.912Z,30.50
2018-07-30T11:22:14.877Z,30.30
2018-07-30T11:24:43.411Z,29.80
2018-07-30T11:27:12.188Z,30.00
2018-07-30T11:29:40.724Z,32.20
2018-07-30T11:32:09.243Z,32.50
2018-07-30T11:34:38.949Z,32.40
2018-07-30T11:37:07.494Z,32.80
2018-07-30T11:39:36.006Z,33.70
2018-07-30T11:42:05.226Z,31.10
2018-07-30T11:44:34.353Z,32.00
2018-07-30T11:47:03.284Z,31.90
2018-07-30T11:52:00.840Z,31.10
2018-07-30T11:54:29.380Z,31.30
2018-07-30T11:59:26.070Z,32.50
2018-07-30T12:01:54.635Z,31.60
2018-07-30T12:04:23.253Z,31.70
2018-07-30T12:06:52.150Z,31.20
2018-07-30T12:09:20.814Z,31.00
2018-07-30T12:11:49.735Z,31.30
2018-07-30T12:14:18.357Z,32.10
2018-07-30T12:16:47.021Z,31.10
2018-07-30T12:30:24.010Z,32.30
2018-07-30T12:32:52.477Z,33.00
2018-07-30T12:35:21.219Z,32.10
2018-07-30T12:37:49.741Z,30.10
2018-07-30T12:40:18.313Z,30.00
2018-07-30T12:42:47.823Z,29.10
2018-07-30T12:45:22.334Z,31.70
2018-07-30T12:47:50.854Z,31.10
2018-07-30T12:50:19.373Z,30.70
2018-07-30T12:55:16.742Z,30.70
2018-07-30T12:57:45.297Z,30.10
2018-07-30T13:18:16.969Z,31.30
2018-07-30T13:20:45.933Z,30.20
2018-07-30T13:31:51.225Z,33.10
2018-07-30T13:34:19.749Z,32.00
2018-07-30T13:36:48.377Z,33.70
2018-07-30T13:39:17.681Z,31.70
2018-07-30T13:41:46.331Z,30.80
2018-07-30T13:52:30.153Z,29.90
2018-07-30T13:54:59.648Z,32.20
2018-07-30T13:57:28.358Z,33.00
2018-07-30T13:59:57.661Z,32.40
2018-07-30T14:02:26.280Z,31.50
2018-07-30T14:04:54.755Z,29.00
2018-07-30T14:07:23.326Z,30.20
2018-07-30T14:09:52.053Z,29.60
2018-07-30T14:12:20.614Z,31.20
2018-07-30T14:14:49.125Z,32.80
2018-07-30T14:17:17.695Z,31.20
2018-07-30T14:19:46.326Z,30.80
2018-07-30T14:41:31.352Z,31.40
2018-07-30T14:43:59.951Z,32.80
2018-07-30T14:46:28.526Z,29.50
2018-07-30T14:48:57.089Z,28.50
2018-07-30T14:51:26.031Z,29.20
2018-07-30T14:53:54.794Z,32.00
2018-07-30T14:56:24.050Z,31.40
2018-07-30T14:58:52.639Z,30.00
2018-07-30T15:01:21.160Z,30.20
2018-07-30T15:03:50.037Z,31.80
2018-07-30T15:06:18.579Z,29.60
2018-07-30T15:08:47.068Z,31.70
2018-07-30T15:17:11.207Z,31.80
2018-07-30T15:19:39.878Z,30.80
2018-07-30T15:22:08.506Z,31.50
2018-07-30T15:24:37.297Z,29.70
2018-07-30T15:27:06.244Z,29.40
2018-07-30T15:29:37.461Z,29.10
2018-07-30T15:32:06.636Z,29.40
2018-07-30T15:37:04.405Z,29.20
2018-07-30T15:39:33.919Z,28.90
2018-07-30T15:42:03.081Z,29.70
2018-07-30T15:44:32.185Z,28.70
2018-07-30T15:47:01.482Z,28.00
2018-07-30T15:49:30.553Z,27.30
2018-07-30T15:52:00.723Z,27.30
2018-07-30T15:54:29.719Z,26.30
2018-07-30T15:56:58.852Z,26.60
2018-07-30T15:59:27.349Z,27.50
2018-07-30T16:01:56.103Z,28.00
2018-07-30T16:04:24.615Z,28.70
2018-07-30T16:06:53.140Z,29.40
2018-07-30T16:09:22.153Z,31.30
2018-07-30T16:14:18.953Z,29.80
2018-07-30T16:16:47.488Z,31.70
2018-07-30T16:19:17.411Z,29.50
2018-07-30T16:31:51.106Z,28.30
2018-07-30T16:34:19.643Z,29.40
2018-07-30T16:38:38.751Z,29.00
2018-07-30T16:41:07.284Z,30.00
2018-07-30T16:43:35.836Z,29.30
2018-07-30T16:46:04.441Z,30.00
2018-07-30T16:48:33.225Z,31.30
2018-07-30T16:51:01.802Z,31.30
2018-07-30T16:53:30.516Z,31.70
2018-07-30T16:55:59.048Z,30.50
2018-07-30T16:58:28.513Z,29.80
2018-07-30T17:03:25.689Z,29.90
2018-07-30T17:05:54.268Z,29.00
2018-07-30T17:08:23.722Z,30.30
2018-07-30T17:10:52.467Z,32.10
2018-07-30T17:15:49.812Z,30.40
2018-07-30T17:18:18.522Z,30.90
2018-07-30T17:31:49.110Z,30.40
2018-07-30T17:34:17.698Z,30.40
2018-07-30T17:36:46.206Z,31.90
2018-07-30T17:47:25.527Z,32.00
2018-07-30T17:49:54.617Z,33.00
2018-07-30T17:52:23.115Z,34.10
2018-07-30T17:54:51.982Z,33.50
2018-07-30T17:57:22.089Z,34.20
2018-07-30T17:59:51.560Z,33.40
2018-07-30T18:04:48.432Z,34.50
2018-07-30T18:07:17.401Z,35.90
2018-07-30T18:34:19.407Z,39.30
2018-07-30T18:36:48.406Z,41.70
2018-07-30T18:39:17.430Z,42.20
2018-07-30T18:41:46.022Z,41.70
2018-07-30T18:51:59.140Z,41.50
2018-07-30T18:54:27.637Z,42.00
2018-07-30T18:56:56.146Z,44.30
2018-07-30T19:01:53.386Z,45.30
2018-07-30T19:04:21.928Z,46.00
2018-07-30T19:06:50.674Z,46.30
2018-07-30T19:09:19.328Z,46.10
2018-07-30T19:11:47.976Z,46.70
2018-07-30T19:31:51.385Z,47.40
